createdAt,value
2022-08-12T00:00:45.216Z,3.08
2022-08-12T00:03:30.371Z,2.63
2022-08-12T00:06:15.596Z,3.08
2022-08-12T00:09:00.655Z,2.67
2022-08-12T00:11:46.217Z,3.00
2022-08-12T00:14:32.266Z,2.72
2022-08-12T00:17:18.033Z,2.80
2022-08-12T00:20:03.196Z,2.92
2022-08-12T00:22:59.207Z,2.95
2022-08-12T00:26:21.360Z,3.10
2022-08-12T00:29:04.485Z,3.00
2022-08-12T00:31:49.478Z,3.08
2022-08-12T00:34:35.594Z,2.90
2022-08-12T00:37:20.601Z,3.00
2022-08-12T00:40:11.679Z,2.83
2022-08-12T00:42:41.260Z,2.95
2022-08-12T00:45:09.297Z,3.05
2022-08-12T00:47:36.201Z,3.50
2022-08-12T00:50:03.549Z,2.95
2022-08-12T00:52:30.750Z,2.92
2022-08-12T00:55:00.770Z,3.10
2022-08-12T00:57:28.959Z,3.08
2022-08-12T01:00:01.295Z,2.97
2022-08-12T01:02:31.699Z,3.38
2022-08-12T01:05:20.024Z,3.20
2022-08-12T01:08:06.762Z,3.10
2022-08-12T01:10:54.751Z,3.40
2022-08-12T01:13:22.089Z,3.33
2022-08-12T01:15:51.306Z,3.10
2022-08-12T01:18:23.606Z,3.35
2022-08-12T01:20:53.153Z,3.00
2022-08-12T01:23:36.249Z,3.40
2022-08-12T01:26:04.350Z,3.20
2022-08-12T01:28:33.801Z,3.22
2022-08-12T01:31:05.662Z,3.05
2022-08-12T01:33:41.452Z,3.08
2022-08-12T01:36:11.051Z,3.28
2022-08-12T01:38:38.293Z,3.50
2022-08-12T01:41:05.446Z,3.28
2022-08-12T01:43:32.219Z,3.30
2022-08-12T01:46:17.448Z,3.30
2022-08-12T01:49:21.721Z,3.17
2022-08-12T01:52:20.930Z,2.83
2022-08-12T01:54:50.452Z,3.22
2022-08-12T01:57:58.358Z,2.97
2022-08-12T02:00:13.683Z,3.13
2022-08-12T02:02:53.753Z,3.30
2022-08-12T02:06:01.265Z,3.10
2022-08-12T02:09:06.623Z,3.17
2022-08-12T02:11:44.868Z,3.47
2022-08-12T02:14:21.262Z,3.22
2022-08-12T02:16:53.794Z,3.22
2022-08-12T02:19:50.827Z,3.25
2022-08-12T02:22:37.078Z,3.20
2022-08-12T02:25:03.552Z,3.10
2022-08-12T02:27:35.601Z,3.20
2022-08-12T02:30:03.585Z,3.28
2022-08-12T02:32:32.126Z,2.97
2022-08-12T02:34:59.086Z,3.15
2022-08-12T02:37:27.073Z,3.10
2022-08-12T02:39:53.802Z,3.30
2022-08-12T02:42:23.430Z,3.28
2022-08-12T02:44:51.617Z,3.42
2022-08-12T02:47:58.380Z,3.50
2022-08-12T02:50:08.466Z,3.33
2022-08-12T02:52:35.096Z,3.45
2022-08-12T02:55:28.597Z,3.53
2022-08-12T02:58:00.741Z,3.40
2022-08-12T03:00:34.072Z,3.58
2022-08-12T03:03:05.759Z,3.40
2022-08-12T03:05:44.178Z,3.35
2022-08-12T03:08:29.885Z,3.35
2022-08-12T03:11:03.785Z,3.20
2022-08-12T03:13:33.275Z,3.50
2022-08-12T03:16:00.023Z,3.75
2022-08-12T03:18:30.955Z,3.58
2022-08-12T03:20:59.296Z,3.55
2022-08-12T03:23:28.854Z,3.65
2022-08-12T03:25:57.288Z,3.40
2022-08-12T03:28:42.663Z,3.95
2022-08-12T03:31:10.546Z,3.33
2022-08-12T03:33:40.161Z,3.97
2022-08-12T03:36:08.222Z,3.90
2022-08-12T03:38:43.173Z,3.70
2022-08-12T03:41:35.482Z,3.63
2022-08-12T03:44:25.842Z,3.38
2022-08-12T03:47:38.276Z,3.25
2022-08-12T03:50:24.016Z,3.50
2022-08-12T03:53:09.251Z,3.58
2022-08-12T03:55:54.858Z,3.47
2022-08-12T03:58:40.996Z,3.50
2022-08-12T04:01:08.119Z,3.25
2022-08-12T04:03:53.180Z,3.70
2022-08-12T04:06:35.082Z,3.47
2022-08-12T04:09:05.179Z,4.00
2022-08-12T04:12:01.043Z,3.38
2022-08-12T04:14:28.263Z,3.65
2022-08-12T04:16:57.000Z,3.40
2022-08-12T04:19:25.106Z,3.70
2022-08-12T04:22:03.050Z,3.45
2022-08-12T04:24:35.172Z,3.95
2022-08-12T04:27:05.052Z,3.90
2022-08-12T04:30:29.307Z,3.65
2022-08-12T04:32:18.229Z,3.63
2022-08-12T04:34:44.858Z,3.60
2022-08-12T04:37:12.830Z,3.80
2022-08-12T04:39:40.543Z,3.42
2022-08-12T04:42:07.093Z,3.92
2022-08-12T04:44:33.554Z,3.60
2022-08-12T04:47:00.181Z,3.90
2022-08-12T04:49:27.746Z,3.75
2022-08-12T04:51:59.118Z,3.53
2022-08-12T04:54:27.354Z,4.00
2022-08-12T04:57:03.213Z,4.07
2022-08-12T04:59:47.829Z,3.97
2022-08-12T05:02:26.161Z,4.15
2022-08-12T05:05:00.630Z,4.60
2022-08-12T05:07:28.204Z,4.13
2022-08-12T05:10:01.062Z,4.53
2022-08-12T05:12:38.267Z,4.55
2022-08-12T05:15:16.816Z,4.25
2022-08-12T05:17:52.789Z,4.47
2022-08-12T05:20:20.984Z,4.30
2022-08-12T05:22:47.562Z,4.40
2022-08-12T05:25:15.818Z,4.07
2022-08-12T05:27:58.454Z,4.00
2022-08-12T05:30:25.608Z,4.28
2022-08-12T05:32:53.725Z,3.95
2022-08-12T05:35:22.441Z,4.35
2022-08-12T05:38:09.821Z,4.22
2022-08-12T05:40:36.723Z,4.40
2022-08-12T05:43:03.261Z,4.18
2022-08-12T05:45:29.774Z,3.58
2022-08-12T05:47:56.253Z,3.55
2022-08-12T05:50:22.947Z,3.40
2022-08-12T05:52:49.470Z,3.83
2022-08-12T05:55:20.318Z,3.13
2022-08-12T05:57:53.170Z,3.42
2022-08-12T06:00:20.439Z,3.65
2022-08-12T06:02:46.983Z,3.50
2022-08-12T06:05:13.958Z,3.33
2022-08-12T06:08:02.198Z,3.13
2022-08-12T06:10:32.579Z,2.95
2022-08-12T06:13:09.070Z,2.75
2022-08-12T06:15:37.856Z,2.50
2022-08-12T06:18:14.051Z,2.78
2022-08-12T06:20:43.395Z,2.42
2022-08-12T06:23:10.833Z,2.30
2022-08-12T06:25:37.443Z,2.63
2022-08-12T06:28:06.517Z,2.70
2022-08-12T06:30:38.065Z,2.50
2022-08-12T06:33:24.518Z,2.55
2022-08-12T06:35:57.588Z,2.40
2022-08-12T06:38:27.281Z,2.40
2022-08-12T06:41:21.391Z,2.80
2022-08-12T06:44:04.539Z,2.13
2022-08-12T06:46:31.808Z,2.47
2022-08-12T06:48:59.358Z,2.80
2022-08-12T06:51:30.363Z,2.10
2022-08-12T06:53:57.895Z,2.38
2022-08-12T06:56:39.971Z,2.30
2022-08-12T06:59:14.079Z,2.60
2022-08-12T07:01:40.996Z,2.55
2022-08-12T07:04:35.680Z,2.63
2022-08-12T07:07:05.455Z,2.58
2022-08-12T07:10:03.717Z,2.13
2022-08-12T07:12:19.513Z,2.00
2022-08-12T07:14:50.461Z,2.50
2022-08-12T07:17:17.395Z,2.25
2022-08-12T07:19:46.622Z,2.40
2022-08-12T07:22:13.489Z,2.13
2022-08-12T07:24:39.991Z,2.35
2022-08-12T07:27:06.478Z,2.38
2022-08-12T07:29:58.126Z,2.40
2022-08-12T07:32:23.673Z,2.40
2022-08-12T07:34:50.295Z,2.95
2022-08-12T07:37:17.712Z,2.28
2022-08-12T07:39:51.145Z,2.60
2022-08-12T07:42:26.661Z,2.53
2022-08-12T07:44:53.376Z,2.53
2022-08-12T07:47:19.976Z,2.35
2022-08-12T07:50:05.082Z,2.17
2022-08-12T07:52:42.524Z,2.13
2022-08-12T07:55:10.332Z,2.40
2022-08-12T07:57:53.280Z,2.13
2022-08-12T08:00:20.131Z,2.05
2022-08-12T08:02:46.975Z,2.33
2022-08-12T08:05:15.533Z,2.17
2022-08-12T08:07:42.413Z,2.10
2022-08-12T08:10:10.864Z,2.10
2022-08-12T08:12:58.584Z,2.53
2022-08-12T08:15:51.148Z,2.42
2022-08-12T08:18:26.813Z,2.25
2022-08-12T08:20:55.810Z,2.10
2022-08-12T08:23:34.846Z,2.33
2022-08-12T08:26:01.539Z,1.92
2022-08-12T08:28:28.006Z,2.42
2022-08-12T08:30:54.459Z,2.22
2022-08-12T08:33:24.375Z,2.45
2022-08-12T08:36:23.487Z,2.10
2022-08-12T08:38:57.852Z,2.20
2022-08-12T08:42:17.444Z,2.42
2022-08-12T08:44:38.077Z,2.35
2022-08-12T08:47:05.607Z,2.10
2022-08-12T08:49:32.406Z,2.35
2022-08-12T08:52:07.600Z,2.35
2022-08-12T08:54:34.630Z,2.30
2022-08-12T08:57:02.510Z,1.98
2022-08-12T08:59:29.353Z,2.10
2022-08-12T09:01:56.407Z,2.15
2022-08-12T09:05:12.290Z,2.17
2022-08-12T09:07:18.147Z,2.17
2022-08-12T09:10:02.698Z,2.33
2022-08-12T09:15:36.226Z,2.20
2022-08-12T09:18:09.026Z,2.30
2022-08-12T09:20:36.857Z,2.10
2022-08-12T09:23:56.738Z,2.33
2022-08-12T09:25:57.772Z,2.13
2022-08-12T09:28:31.274Z,2.38
2022-08-12T09:30:58.952Z,1.90
2022-08-12T09:34:25.212Z,2.20
2022-08-12T09:36:16.183Z,1.88
2022-08-12T09:38:59.129Z,2.25
2022-08-12T09:42:32.763Z,1.70
2022-08-12T09:44:39.476Z,1.90
2022-08-12T09:47:10.719Z,2.03
2022-08-12T09:49:42.287Z,2.13
2022-08-12T09:52:09.158Z,2.05
2022-08-12T09:54:36.345Z,2.00
2022-08-12T09:58:45.514Z,1.80
2022-08-12T10:00:15.818Z,2.08
2022-08-12T10:03:31.967Z,2.00
2022-08-12T10:06:20.071Z,2.05
2022-08-12T10:08:44.907Z,2.17
2022-08-12T10:12:07.800Z,1.90
2022-08-12T10:14:34.585Z,2.10
2022-08-12T10:17:02.164Z,1.67
2022-08-12T10:19:36.836Z,2.20
2022-08-12T10:22:06.026Z,2.50
2022-08-12T10:24:53.410Z,2.00
2022-08-12T10:28:03.395Z,2.08
2022-08-12T10:30:41.714Z,1.88
2022-08-12T10:33:19.176Z,1.70
2022-08-12T10:35:49.493Z,1.80
2022-08-12T10:38:37.215Z,1.77
2022-08-12T10:41:58.435Z,2.08
2022-08-12T10:44:17.356Z,1.92
2022-08-12T10:46:49.569Z,1.60
2022-08-12T10:50:02.536Z,1.98
2022-08-12T10:52:32.820Z,1.85
2022-08-12T10:54:55.739Z,1.70
2022-08-12T10:58:15.434Z,1.60
2022-08-12T11:00:34.503Z,1.90
2022-08-12T11:04:23.557Z,1.90
2022-08-12T11:07:06.014Z,2.10
2022-08-12T11:08:42.887Z,1.92
2022-08-12T11:11:13.610Z,1.98
2022-08-12T11:13:46.604Z,2.15
2022-08-12T11:16:21.978Z,1.83
2022-08-12T11:18:55.271Z,1.90
2022-08-12T11:21:22.479Z,1.90
2022-08-12T11:24:09.043Z,1.92
2022-08-12T11:30:05.249Z,2.08
2022-08-12T11:32:15.406Z,1.90
2022-08-12T11:34:52.798Z,1.67
2022-08-12T11:37:25.732Z,2.20
2022-08-12T11:42:35.076Z,1.80
2022-08-12T11:45:03.773Z,2.03
2022-08-12T11:47:31.793Z,1.90
2022-08-12T11:49:58.280Z,1.83
2022-08-12T11:52:53.931Z,1.70
2022-08-12T11:55:14.906Z,1.75
2022-08-12T11:58:32.205Z,1.75
2022-08-12T12:03:26.058Z,1.88
2022-08-12T12:06:10.748Z,1.63
2022-08-12T12:08:47.020Z,1.90
2022-08-12T12:11:17.650Z,1.77
2022-08-12T12:14:08.125Z,2.05
2022-08-12T12:16:31.115Z,1.63
2022-08-12T12:18:59.895Z,2.20
2022-08-12T12:21:47.133Z,1.90
2022-08-12T12:24:12.919Z,2.20
2022-08-12T12:26:39.358Z,1.80
2022-08-12T12:29:09.907Z,1.80
2022-08-12T12:32:10.897Z,2.20
2022-08-12T12:34:38.568Z,1.83
2022-08-12T12:37:05.302Z,2.15
2022-08-12T12:39:54.867Z,1.90
2022-08-12T12:42:42.665Z,1.92
2022-08-12T12:45:19.023Z,1.80
2022-08-12T12:48:00.993Z,1.70
2022-08-12T12:50:35.518Z,1.90
2022-08-12T12:53:04.009Z,1.88
2022-08-12T12:55:34.744Z,1.73
2022-08-12T12:58:04.606Z,1.73
2022-08-12T13:00:32.811Z,1.30
2022-08-12T13:02:59.852Z,2.20
2022-08-12T13:05:42.145Z,2.20
2022-08-12T13:08:28.476Z,1.70
2022-08-12T13:11:04.530Z,1.73
2022-08-12T13:14:10.441Z,1.80
2022-08-12T13:16:23.192Z,1.67
2022-08-12T13:18:50.924Z,1.70
2022-08-12T13:21:32.938Z,1.70
2022-08-12T13:24:10.429Z,1.70
2022-08-12T13:26:38.676Z,1.90
2022-08-12T13:29:05.163Z,1.98
2022-08-12T13:31:31.605Z,1.70
2022-08-12T13:34:32.087Z,1.80
2022-08-12T13:36:50.786Z,2.13
2022-08-12T13:39:21.269Z,2.00
2022-08-12T13:41:49.625Z,1.70
2022-08-12T13:44:16.417Z,1.75
2022-08-12T13:46:43.463Z,1.88
2022-08-12T13:49:17.523Z,1.80
2022-08-12T13:52:00.671Z,1.88
2022-08-12T13:54:27.205Z,1.73
2022-08-12T13:56:53.714Z,1.83
2022-08-12T13:59:21.787Z,1.63
2022-08-12T14:01:51.780Z,1.70
2022-08-12T14:04:19.072Z,1.40
2022-08-12T14:06:50.381Z,2.03
2022-08-12T14:09:18.143Z,1.70
2022-08-12T14:11:58.999Z,1.70
2022-08-12T14:14:31.704Z,1.80
2022-08-12T14:17:05.509Z,1.60
2022-08-12T14:19:38.108Z,1.65
2022-08-12T14:22:14.510Z,1.83
2022-08-12T14:24:42.347Z,1.65
2022-08-12T14:27:10.908Z,1.60
2022-08-12T14:30:06.253Z,1.70
2022-08-12T14:32:28.382Z,1.95
2022-08-12T14:34:56.667Z,1.75
2022-08-12T14:37:56.236Z,1.58
2022-08-12T14:40:13.175Z,1.88
2022-08-12T14:42:44.862Z,1.90
2022-08-12T14:45:13.675Z,1.75
2022-08-12T14:47:58.454Z,1.63
2022-08-12T14:50:41.166Z,1.90
2022-08-12T14:54:55.908Z,1.77
2022-08-12T14:59:20.313Z,1.60
2022-08-12T15:01:50.492Z,1.55
2022-08-12T15:04:24.633Z,1.65
2022-08-12T15:06:53.138Z,1.77
2022-08-12T15:09:29.220Z,1.70
2022-08-12T15:12:03.912Z,1.67
2022-08-12T15:14:30.981Z,1.60
2022-08-12T15:16:59.930Z,1.70
2022-08-12T15:20:31.888Z,1.63
2022-08-12T15:22:38.340Z,1.67
2022-08-12T15:25:03.614Z,1.80
2022-08-12T15:28:11.104Z,2.00
2022-08-12T15:30:22.825Z,2.53
2022-08-12T15:32:50.711Z,1.80
2022-08-12T15:35:17.568Z,1.50
2022-08-12T15:38:08.703Z,1.75
2022-08-12T15:40:31.691Z,1.92
2022-08-12T15:43:08.320Z,1.80
2022-08-12T15:45:42.598Z,1.58
2022-08-12T15:48:16.365Z,1.70
2022-08-12T15:50:46.686Z,1.63
2022-08-12T15:53:41.768Z,1.58
2022-08-12T15:56:12.522Z,1.40
2022-08-12T15:58:41.238Z,1.90
2022-08-12T16:01:13.816Z,1.70
2022-08-12T16:03:46.134Z,1.50
2022-08-12T16:06:50.961Z,1.73
2022-08-12T16:09:15.540Z,1.40
2022-08-12T16:11:48.339Z,1.60
2022-08-12T16:14:16.107Z,1.85
2022-08-12T16:16:43.097Z,1.58
2022-08-12T16:20:01.826Z,1.90
2022-08-12T16:22:02.700Z,1.58
2022-08-12T16:24:29.838Z,1.80
2022-08-12T16:26:56.266Z,1.50
2022-08-12T16:29:52.905Z,1.80
2022-08-12T16:32:23.080Z,1.67
2022-08-12T16:34:55.899Z,1.52
2022-08-12T16:37:32.258Z,1.73
2022-08-12T16:40:11.980Z,1.60
2022-08-12T16:43:01.802Z,1.88
2022-08-12T16:45:32.153Z,1.42
2022-08-12T16:48:33.927Z,1.45
2022-08-12T16:51:03.554Z,1.50
2022-08-12T16:53:43.220Z,1.60
2022-08-12T16:56:12.359Z,1.40
2022-08-12T16:58:39.787Z,1.50
2022-08-12T17:01:11.881Z,1.60
2022-08-12T17:03:52.281Z,1.77
2022-08-12T17:06:22.238Z,1.70
2022-08-12T17:09:03.475Z,1.45
2022-08-12T17:11:37.812Z,1.63
2022-08-12T17:14:06.727Z,1.50
2022-08-12T17:16:37.474Z,1.70
2022-08-12T17:19:09.141Z,1.90
2022-08-12T17:21:40.703Z,1.73
2022-08-12T17:24:22.351Z,1.50
2022-08-12T17:26:56.196Z,1.45
2022-08-12T17:29:24.230Z,1.50
2022-08-12T17:32:10.902Z,1.58
2022-08-12T17:34:55.987Z,1.45
2022-08-12T17:37:22.468Z,1.30
2022-08-12T17:40:12.354Z,1.60
2022-08-12T17:42:37.878Z,1.65
2022-08-12T17:45:18.356Z,1.38
2022-08-12T17:48:02.281Z,1.75
2022-08-12T17:50:38.685Z,1.65
2022-08-12T17:53:07.965Z,1.40
2022-08-12T17:55:44.667Z,1.95
2022-08-12T17:58:18.475Z,1.52
2022-08-12T18:00:50.457Z,1.77
2022-08-12T18:03:58.094Z,1.83
2022-08-12T18:06:13.715Z,1.60
2022-08-12T18:08:53.696Z,1.70
2022-08-12T18:12:06.028Z,1.60
2022-08-12T18:14:28.165Z,1.60
2022-08-12T18:16:57.667Z,1.50
2022-08-12T18:19:28.752Z,1.73
2022-08-12T18:22:15.389Z,1.50
2022-08-12T18:24:42.518Z,1.30
2022-08-12T18:27:30.169Z,1.27
2022-08-12T18:29:56.145Z,1.73
2022-08-12T18:32:43.793Z,1.35
2022-08-12T18:35:16.490Z,1.50
2022-08-12T18:37:42.937Z,1.40
2022-08-12T18:40:28.557Z,1.40
2022-08-12T18:42:55.170Z,1.90
2022-08-12T18:45:46.654Z,1.33
2022-08-12T18:48:14.889Z,1.70
2022-08-12T18:50:49.236Z,1.67
2022-08-12T18:54:07.180Z,1.50
2022-08-12T18:56:05.046Z,1.63
2022-08-12T18:58:38.386Z,1.55
2022-08-12T19:02:17.169Z,1.75
2022-08-12T19:04:12.252Z,1.48
2022-08-12T19:06:39.393Z,1.60
2022-08-12T19:09:09.987Z,1.58
2022-08-12T19:11:55.915Z,1.77
2022-08-12T19:14:25.421Z,2.20
2022-08-12T19:17:01.050Z,2.05
2022-08-12T19:19:28.108Z,1.80
2022-08-12T19:22:08.194Z,1.60
2022-08-12T19:24:53.129Z,1.40
2022-08-12T19:27:21.483Z,1.50
2022-08-12T19:30:06.154Z,1.60
2022-08-12T19:32:34.143Z,1.80
2022-08-12T19:38:06.388Z,1.50
2022-08-12T19:40:35.244Z,1.90
2022-08-12T19:43:13.312Z,1.48
2022-08-12T19:45:50.294Z,1.67
2022-08-12T19:48:19.317Z,1.55
2022-08-12T19:50:50.521Z,1.40
2022-08-12T19:53:24.321Z,1.90
2022-08-12T19:55:53.082Z,1.80
2022-08-12T19:58:20.852Z,1.70
2022-08-12T20:00:53.506Z,1.75
2022-08-12T20:03:38.583Z,1.52
2022-08-12T20:06:14.188Z,1.65
2022-08-12T20:08:48.880Z,1.58
2022-08-12T20:12:12.608Z,1.60
2022-08-12T20:14:04.312Z,1.90
2022-08-12T20:16:57.152Z,1.90
2022-08-12T20:19:52.222Z,1.52
2022-08-12T20:22:24.836Z,1.70
2022-08-12T20:25:02.142Z,1.85
2022-08-12T20:28:04.500Z,2.00
2022-08-12T20:30:35.215Z,1.80
2022-08-12T20:33:18.506Z,1.92
2022-08-12T20:36:06.597Z,2.28
2022-08-12T20:38:39.865Z,2.05
2022-08-12T20:41:17.335Z,1.98
2022-08-12T20:43:46.716Z,2.15
2022-08-12T20:46:13.525Z,2.45
2022-08-12T20:48:44.085Z,2.20
2022-08-12T20:51:15.770Z,2.50
2022-08-12T20:53:58.639Z,2.05
2022-08-12T20:56:35.063Z,1.90
2022-08-12T20:59:06.486Z,2.13
2022-08-12T21:01:47.064Z,2.10
2022-08-12T21:04:34.609Z,2.40
2022-08-12T21:07:08.611Z,1.90
2022-08-12T21:09:40.990Z,2.28
2022-08-12T21:12:28.412Z,2.42
2022-08-12T21:15:24.048Z,2.65
2022-08-12T21:18:08.753Z,2.30
2022-08-12T21:20:34.920Z,2.65
2022-08-12T21:23:05.862Z,2.00
2022-08-12T21:25:44.463Z,2.15
2022-08-12T21:28:13.622Z,2.50
2022-08-12T21:30:55.056Z,2.30
2022-08-12T21:33:31.311Z,2.25
2022-08-12T21:35:59.078Z,2.40
2022-08-12T21:38:30.582Z,2.20
2022-08-12T21:41:02.265Z,1.85
2022-08-12T21:43:40.305Z,2.30
2022-08-12T21:46:14.990Z,2.30
2022-08-12T21:49:04.011Z,2.00
2022-08-12T21:51:49.782Z,2.20
2022-08-12T21:54:24.472Z,3.05
2022-08-12T21:56:53.873Z,3.60
2022-08-12T21:59:21.711Z,2.50
2022-08-12T22:01:49.603Z,2.35
2022-08-12T22:04:36.242Z,2.08
2022-08-12T22:07:03.823Z,2.10
2022-08-12T22:09:43.448Z,2.00
2022-08-12T22:12:28.768Z,1.92
2022-08-12T22:14:55.264Z,2.03
2022-08-12T22:17:21.788Z,1.70
2022-08-12T22:19:50.489Z,1.50
2022-08-12T22:22:17.017Z,1.52
2022-08-12T22:24:45.522Z,1.98
2022-08-12T22:27:31.984Z,1.77
2022-08-12T22:30:19.841Z,1.40
2022-08-12T22:32:51.585Z,1.35
2022-08-12T22:35:47.527Z,1.45
2022-08-12T22:38:23.771Z,1.60
2022-08-12T22:40:57.395Z,1.77
2022-08-12T22:43:58.550Z,1.40
2022-08-12T22:46:37.251Z,1.40
2022-08-12T22:49:06.548Z,1.50
2022-08-12T22:51:57.764Z,1.52
2022-08-12T22:54:35.602Z,1.60
2022-08-12T22:57:03.757Z,1.63
2022-08-12T22:59:51.124Z,1.77
2022-08-12T23:02:17.696Z,1.83
2022-08-12T23:04:56.315Z,1.60
2022-08-12T23:07:24.395Z,1.35
2022-08-12T23:09:51.664Z,1.80
2022-08-12T23:12:46.587Z,1.40
2022-08-12T23:15:14.084Z,1.63
2022-08-12T23:17:41.736Z,1.58
2022-08-12T23:20:10.879Z,1.70
2022-08-12T23:22:37.614Z,1.60
2022-08-12T23:25:04.381Z,1.60
2022-08-12T23:27:51.693Z,1.60
2022-08-12T23:30:24.611Z,2.00
2022-08-12T23:32:54.781Z,1.70
2022-08-12T23:35:45.980Z,1.63
2022-08-12T23:38:30.139Z,1.77
2022-08-12T23:40:57.074Z,1.63
2022-08-12T23:43:25.345Z,1.60
2022-08-12T23:46:00.647Z,1.63
2022-08-12T23:48:31.258Z,1.45
2022-08-12T23:51:01.518Z,1.58
2022-08-12T23:53:32.553Z,1.88
2022-08-12T23:55:59.520Z,1.42
2022-08-12T23:58:28.168Z,1.73
